sensor_id;sensor_type;location;lat;lon;timestamp;P1;durP1;ratioP1;P2;durP2;ratioP2
29500;SDS011;16450;50.288;10.966;2024-01-10T00:00:37;23.93;;;9.97;;
29500;SDS011;16450;50.288;10.966;2024-01-10T00:03:39;21.33;;;9.43;;
29500;SDS011;16450;50.288;10.966;2024-01-10T00:06:42;22.20;;;9.67;;
29500;SDS011;16450;50.288;10.966;2024-01-10T00:09:44;21.07;;;9.70;;
29500;SDS011;16450;50.288;10.966;2024-01-10T00:12:47;21.10;;;9.90;;
29500;SDS011;16450;50.288;10.966;2024-01-10T00:15:49;19.63;;;9.43;;
29500;SDS011;16450;50.288;10.966;2024-01-10T00:18:51;22.90;;;10.30;;
29500;SDS011;16450;50.288;10.966;2024-01-10T00:21:52;22.73;;;10.17;;
29500;SDS011;16450;50.288;10.966;2024-01-10T00:24:55;26.10;;;10.37;;
29500;SDS011;16450;50.288;10.966;2024-01-10T00:27:57;25.20;;;9.80;;
29500;SDS011;16450;50.288;10.966;2024-01-10T00:30:59;23.27;;;9.50;;
29500;SDS011;16450;50.288;10.966;2024-01-10T00:34:01;19.33;;;8.93;;
29500;SDS011;16450;50.288;10.966;2024-01-10T00:37:03;21.57;;;9.63;;
29500;SDS011;16450;50.288;10.966;2024-01-10T00:40:05;20.80;;;9.60;;
29500;SDS011;16450;50.288;10.966;2024-01-10T00:43:09;20.87;;;9.20;;
29500;SDS011;16450;50.288;10.966;2024-01-10T00:46:11;22.70;;;10.20;;
29500;SDS011;16450;50.288;10.966;2024-01-10T00:49:12;22.43;;;9.77;;
29500;SDS011;16450;50.288;10.966;2024-01-10T00:52:14;19.93;;;9.30;;
29500;SDS011;16450;50.288;10.966;2024-01-10T00:55:16;20.43;;;10.07;;
29500;SDS011;16450;50.288;10.966;2024-01-10T00:58:18;23.23;;;9.77;;
29500;SDS011;16450;50.288;10.966;2024-01-10T01:01:20;23.03;;;9.73;;
29500;SDS011;16450;50.288;10.966;2024-01-10T01:04:22;19.33;;;9.27;;
29500;SDS011;16450;50.288;10.966;2024-01-10T01:07:24;23.20;;;10.23;;
29500;SDS011;16450;50.288;10.966;2024-01-10T01:10:25;23.53;;;10.40;;
29500;SDS011;16450;50.288;10.966;2024-01-10T01:13:27;20.80;;;10.10;;
29500;SDS011;16450;50.288;10.966;2024-01-10T01:16:29;22.63;;;10.70;;
29500;SDS011;16450;50.288;10.966;2024-01-10T01:19:31;21.30;;;9.60;;
29500;SDS011;16450;50.288;10.966;2024-01-10T01:22:33;23.93;;;10.20;;
29500;SDS011;16450;50.288;10.966;2024-01-10T01:25:35;26.20;;;10.80;;
29500;SDS011;16450;50.288;10.966;2024-01-10T01:28:37;24.20;;;11.20;;
29500;SDS011;16450;50.288;10.966;2024-01-10T01:31:39;23.33;;;10.23;;
29500;SDS011;16450;50.288;10.966;2024-01-10T01:34:40;22.00;;;10.30;;
29500;SDS011;16450;50.288;10.966;2024-01-10T01:37:42;26.00;;;11.70;;
29500;SDS011;16450;50.288;10.966;2024-01-10T01:40:44;21.50;;;10.23;;
29500;SDS011;16450;50.288;10.966;2024-01-10T01:43:46;25.53;;;11.27;;
29500;SDS011;16450;50.288;10.966;2024-01-10T01:46:48;23.83;;;11.13;;
29500;SDS011;16450;50.288;10.966;2024-01-10T01:49:51;24.80;;;10.67;;
29500;SDS011;16450;50.288;10.966;2024-01-10T01:52:53;24.43;;;10.30;;
29500;SDS011;16450;50.288;10.966;2024-01-10T01:55:55;23.70;;;11.03;;
29500;SDS011;16450;50.288;10.966;2024-01-10T01:58:58;24.83;;;11.10;;
29500;SDS011;16450;50.288;10.966;2024-01-10T02:02:01;30.17;;;11.47;;
29500;SDS011;16450;50.288;10.966;2024-01-10T02:05:06;28.87;;;11.60;;
29500;SDS011;16450;50.288;10.966;2024-01-10T02:08:08;21.63;;;9.83;;
29500;SDS011;16450;50.288;10.966;2024-01-10T02:11:10;24.20;;;11.30;;
29500;SDS011;16450;50.288;10.966;2024-01-10T02:14:12;23.40;;;11.03;;
29500;SDS011;16450;50.288;10.966;2024-01-10T02:17:14;23.43;;;10.00;;
29500;SDS011;16450;50.288;10.966;2024-01-10T02:20:16;27.57;;;11.23;;
29500;SDS011;16450;50.288;10.966;2024-01-10T02:23:18;24.43;;;11.33;;
29500;SDS011;16450;50.288;10.966;2024-01-10T02:26:20;24.47;;;10.30;;
29500;SDS011;16450;50.288;10.966;2024-01-10T02:29:22;24.17;;;11.20;;
29500;SDS011;16450;50.288;10.966;2024-01-10T02:32:25;27.60;;;11.23;;
29500;SDS011;16450;50.288;10.966;2024-01-10T02:35:27;21.23;;;10.40;;
29500;SDS011;16450;50.288;10.966;2024-01-10T02:38:29;23.30;;;10.10;;
29500;SDS011;16450;50.288;10.966;2024-01-10T02:41:31;24.90;;;10.60;;
29500;SDS011;16450;50.288;10.966;2024-01-10T02:44:33;25.10;;;10.40;;
29500;SDS011;16450;50.288;10.966;2024-01-10T02:47:35;19.93;;;10.20;;
29500;SDS011;16450;50.288;10.966;2024-01-10T02:50:38;23.40;;;10.17;;
29500;SDS011;16450;50.288;10.966;2024-01-10T02:53:40;20.17;;;9.80;;
29500;SDS011;16450;50.288;10.966;2024-01-10T02:56:42;22.13;;;9.97;;
29500;SDS011;16450;50.288;10.966;2024-01-10T02:59:43;25.40;;;10.93;;
29500;SDS011;16450;50.288;10.966;2024-01-10T03:02:45;21.13;;;9.77;;
29500;SDS011;16450;50.288;10.966;2024-01-10T03:05:47;22.47;;;10.43;;
29500;SDS011;16450;50.288;10.966;2024-01-10T03:08:49;28.60;;;11.17;;
29500;SDS011;16450;50.288;10.966;2024-01-10T03:11:51;25.33;;;10.43;;
29500;SDS011;16450;50.288;10.966;2024-01-10T03:14:53;20.20;;;9.87;;
29500;SDS011;16450;50.288;10.966;2024-01-10T03:17:54;21.63;;;9.93;;
29500;SDS011;16450;50.288;10.966;2024-01-10T03:20:57;22.27;;;10.07;;
29500;SDS011;16450;50.288;10.966;2024-01-10T03:23:59;22.03;;;9.87;;
29500;SDS011;16450;50.288;10.966;2024-01-10T03:27:01;25.00;;;9.83;;
29500;SDS011;16450;50.288;10.966;2024-01-10T03:30:04;21.27;;;9.77;;
29500;SDS011;16450;50.288;10.966;2024-01-10T03:33:07;22.80;;;11.13;;
29500;SDS011;16450;50.288;10.966;2024-01-10T03:36:11;21.67;;;9.87;;
29500;SDS011;16450;50.288;10.966;2024-01-10T03:39:13;23.13;;;10.40;;
29500;SDS011;16450;50.288;10.966;2024-01-10T03:42:15;22.03;;;10.07;;
29500;SDS011;16450;50.288;10.966;2024-01-10T03:45:17;21.50;;;10.00;;
29500;SDS011;16450;50.288;10.966;2024-01-10T03:48:23;26.47;;;10.37;;
29500;SDS011;16450;50.288;10.966;2024-01-10T03:51:25;24.17;;;9.83;;
29500;SDS011;16450;50.288;10.966;2024-01-10T03:54:26;18.53;;;9.57;;
29500;SDS011;16450;50.288;10.966;2024-01-10T03:57:28;21.07;;;9.83;;
29500;SDS011;16450;50.288;10.966;2024-01-10T04:00:30;22.50;;;9.97;;
29500;SDS011;16450;50.288;10.966;2024-01-10T04:03:32;18.70;;;9.10;;
29500;SDS011;16450;50.288;10.966;2024-01-10T04:06:35;22.00;;;9.93;;
29500;SDS011;16450;50.288;10.966;2024-01-10T04:09:36;22.90;;;10.43;;
29500;SDS011;16450;50.288;10.966;2024-01-10T04:12:42;22.80;;;9.50;;
29500;SDS011;16450;50.288;10.966;2024-01-10T04:15:44;22.83;;;9.83;;
29500;SDS011;16450;50.288;10.966;2024-01-10T04:18:46;21.03;;;9.20;;
29500;SDS011;16450;50.288;10.966;2024-01-10T04:21:48;23.10;;;9.63;;
29500;SDS011;16450;50.288;10.966;2024-01-10T04:24:50;22.77;;;10.13;;
29500;SDS011;16450;50.288;10.966;2024-01-10T04:27:52;22.73;;;10.33;;
29500;SDS011;16450;50.288;10.966;2024-01-10T04:30:54;23.77;;;9.77;;
29500;SDS011;16450;50.288;10.966;2024-01-10T04:33:56;19.30;;;9.53;;
29500;SDS011;16450;50.288;10.966;2024-01-10T04:36:58;22.93;;;10.07;;
29500;SDS011;16450;50.288;10.966;2024-01-10T04:40:00;22.27;;;9.77;;
29500;SDS011;16450;50.288;10.966;2024-01-10T04:43:02;20.23;;;9.90;;
29500;SDS011;16450;50.288;10.966;2024-01-10T04:46:03;21.17;;;9.23;;
29500;SDS011;16450;50.288;10.966;2024-01-10T04:49:05;22.50;;;9.27;;
29500;SDS011;16450;50.288;10.966;2024-01-10T04:52:08;21.90;;;9.60;;
29500;SDS011;16450;50.288;10.966;2024-01-10T04:55:09;23.93;;;9.60;;
29500;SDS011;16450;50.288;10.966;2024-01-10T04:58:12;21.83;;;9.23;;
29500;SDS011;16450;50.288;10.966;2024-01-10T05:01:14;21.27;;;9.10;;
29500;SDS011;16450;50.288;10.966;2024-01-10T05:04:16;21.53;;;9.93;;
29500;SDS011;16450;50.288;10.966;2024-01-10T05:07:18;21.83;;;9.77;;
29500;SDS011;16450;50.288;10.966;2024-01-10T05:10:20;23.97;;;10.23;;
29500;SDS011;16450;50.288;10.966;2024-01-10T05:13:22;21.67;;;9.40;;
29500;SDS011;16450;50.288;10.966;2024-01-10T05:16:24;19.43;;;8.67;;
29500;SDS011;16450;50.288;10.966;2024-01-10T05:19:26;20.87;;;9.30;;
29500;SDS011;16450;50.288;10.966;2024-01-10T05:22:28;23.57;;;9.73;;
29500;SDS011;16450;50.288;10.966;2024-01-10T05:25:30;21.23;;;9.83;;
29500;SDS011;16450;50.288;10.966;2024-01-10T05:28:32;21.27;;;10.10;;
29500;SDS011;16450;50.288;10.966;2024-01-10T05:31:34;21.57;;;9.60;;
29500;SDS011;16450;50.288;10.966;2024-01-10T05:34:36;22.77;;;9.70;;
29500;SDS011;16450;50.288;10.966;2024-01-10T05:37:38;18.73;;;9.07;;
29500;SDS011;16450;50.288;10.966;2024-01-10T05:40:40;21.43;;;9.43;;
29500;SDS011;16450;50.288;10.966;2024-01-10T05:43:43;20.27;;;9.10;;
29500;SDS011;16450;50.288;10.966;2024-01-10T05:46:45;25.37;;;9.93;;
29500;SDS011;16450;50.288;10.966;2024-01-10T05:49:47;21.70;;;9.30;;
29500;SDS011;16450;50.288;10.966;2024-01-10T05:52:49;20.70;;;9.30;;
29500;SDS011;16450;50.288;10.966;2024-01-10T05:55:51;21.20;;;9.33;;
29500;SDS011;16450;50.288;10.966;2024-01-10T05:58:53;22.00;;;9.80;;
29500;SDS011;16450;50.288;10.966;2024-01-10T06:01:54;23.33;;;9.13;;
29500;SDS011;16450;50.288;10.966;2024-01-10T06:04:57;20.63;;;9.10;;
29500;SDS011;16450;50.288;10.966;2024-01-10T06:07:59;20.13;;;9.27;;
29500;SDS011;16450;50.288;10.966;2024-01-10T06:11:04;22.13;;;9.93;;
29500;SDS011;16450;50.288;10.966;2024-01-10T06:14:10;19.67;;;9.27;;
29500;SDS011;16450;50.288;10.966;2024-01-10T06:17:12;23.03;;;9.57;;
29500;SDS011;16450;50.288;10.966;2024-01-10T06:20:15;22.03;;;9.73;;
29500;SDS011;16450;50.288;10.966;2024-01-10T06:23:17;22.37;;;9.50;;
29500;SDS011;16450;50.288;10.966;2024-01-10T06:26:19;22.57;;;9.20;;
29500;SDS011;16450;50.288;10.966;2024-01-10T06:29:21;19.83;;;9.27;;
29500;SDS011;16450;50.288;10.966;2024-01-10T06:32:23;23.63;;;9.80;;
29500;SDS011;16450;50.288;10.966;2024-01-10T06:35:25;19.97;;;9.30;;
29500;SDS011;16450;50.288;10.966;2024-01-10T06:38:26;18.60;;;9.17;;
29500;SDS011;16450;50.288;10.966;2024-01-10T06:41:28;23.97;;;9.20;;
29500;SDS011;16450;50.288;10.966;2024-01-10T06:44:30;18.13;;;8.80;;
29500;SDS011;16450;50.288;10.966;2024-01-10T06:47:33;21.57;;;8.83;;
29500;SDS011;16450;50.288;10.966;2024-01-10T06:50:35;19.83;;;9.17;;
29500;SDS011;16450;50.288;10.966;2024-01-10T06:53:38;19.00;;;9.83;;
29500;SDS011;16450;50.288;10.966;2024-01-10T06:56:40;22.40;;;10.43;;
29500;SDS011;16450;50.288;10.966;2024-01-10T06:59:45;21.63;;;9.90;;
29500;SDS011;16450;50.288;10.966;2024-01-10T07:02:47;23.40;;;9.87;;
29500;SDS011;16450;50.288;10.966;2024-01-10T07:05:50;20.20;;;8.87;;
29500;SDS011;16450;50.288;10.966;2024-01-10T07:08:52;19.17;;;9.80;;
29500;SDS011;16450;50.288;10.966;2024-01-10T07:11:54;21.77;;;9.93;;
29500;SDS011;16450;50.288;10.966;2024-01-10T07:14:56;17.73;;;9.20;;
29500;SDS011;16450;50.288;10.966;2024-01-10T07:17:57;20.17;;;9.63;;
29500;SDS011;16450;50.288;10.966;2024-01-10T07:20:59;19.93;;;10.07;;
29500;SDS011;16450;50.288;10.966;2024-01-10T07:24:01;24.90;;;10.03;;
29500;SDS011;16450;50.288;10.966;2024-01-10T07:27:04;20.67;;;9.97;;
29500;SDS011;16450;50.288;10.966;2024-01-10T07:30:08;20.33;;;9.33;;
29500;SDS011;16450;50.288;10.966;2024-01-10T07:33:15;20.40;;;9.23;;
29500;SDS011;16450;50.288;10.966;2024-01-10T07:36:17;18.77;;;8.27;;
29500;SDS011;16450;50.288;10.966;2024-01-10T07:39:19;17.10;;;8.60;;
29500;SDS011;16450;50.288;10.966;2024-01-10T07:42:21;19.20;;;8.87;;
29500;SDS011;16450;50.288;10.966;2024-01-10T07:45:23;17.53;;;8.80;;
29500;SDS011;16450;50.288;10.966;2024-01-10T07:48:25;19.87;;;9.30;;
29500;SDS011;16450;50.288;10.966;2024-01-10T07:51:27;17.20;;;8.67;;
29500;SDS011;16450;50.288;10.966;2024-01-10T07:54:29;17.23;;;8.07;;
29500;SDS011;16450;50.288;10.966;2024-01-10T07:57:33;19.93;;;8.90;;
29500;SDS011;16450;50.288;10.966;2024-01-10T08:00:38;18.73;;;8.70;;
29500;SDS011;16450;50.288;10.966;2024-01-10T08:03:40;16.83;;;8.67;;
29500;SDS011;16450;50.288;10.966;2024-01-10T08:06:42;18.87;;;9.10;;
29500;SDS011;16450;50.288;10.966;2024-01-10T08:09:45;23.33;;;9.00;;
29500;SDS011;16450;50.288;10.966;2024-01-10T08:12:46;18.57;;;8.67;;
29500;SDS011;16450;50.288;10.966;2024-01-10T08:15:48;18.87;;;9.23;;
29500;SDS011;16450;50.288;10.966;2024-01-10T08:18:50;18.23;;;8.70;;
29500;SDS011;16450;50.288;10.966;2024-01-10T08:21:55;22.50;;;9.63;;
29500;SDS011;16450;50.288;10.966;2024-01-10T08:24:57;17.30;;;8.20;;
29500;SDS011;16450;50.288;10.966;2024-01-10T08:28:00;19.00;;;9.57;;
29500;SDS011;16450;50.288;10.966;2024-01-10T08:31:02;17.43;;;8.67;;
29500;SDS011;16450;50.288;10.966;2024-01-10T08:34:06;17.97;;;8.50;;
29500;SDS011;16450;50.288;10.966;2024-01-10T08:37:08;20.13;;;9.03;;
29500;SDS011;16450;50.288;10.966;2024-01-10T08:40:10;18.90;;;8.90;;
29500;SDS011;16450;50.288;10.966;2024-01-10T08:43:15;19.43;;;8.60;;
29500;SDS011;16450;50.288;10.966;2024-01-10T08:46:19;17.90;;;8.40;;
29500;SDS011;16450;50.288;10.966;2024-01-10T08:49:22;19.43;;;9.30;;
29500;SDS011;16450;50.288;10.966;2024-01-10T08:52:24;19.70;;;9.50;;
29500;SDS011;16450;50.288;10.966;2024-01-10T08:55:26;19.87;;;10.13;;
29500;SDS011;16450;50.288;10.966;2024-01-10T08:58:27;19.90;;;8.93;;
29500;SDS011;16450;50.288;10.966;2024-01-10T09:01:29;19.97;;;9.47;;
29500;SDS011;16450;50.288;10.966;2024-01-10T09:04:32;20.07;;;9.93;;
29500;SDS011;16450;50.288;10.966;2024-01-10T09:07:38;18.37;;;9.43;;
29500;SDS011;16450;50.288;10.966;2024-01-10T09:10:40;19.40;;;9.30;;
29500;SDS011;16450;50.288;10.966;2024-01-10T09:13:42;20.97;;;10.37;;
29500;SDS011;16450;50.288;10.966;2024-01-10T09:16:44;18.57;;;9.47;;
29500;SDS011;16450;50.288;10.966;2024-01-10T09:19:46;20.47;;;9.93;;
29500;SDS011;16450;50.288;10.966;2024-01-10T09:22:48;20.27;;;9.03;;
29500;SDS011;16450;50.288;10.966;2024-01-10T09:25:50;23.57;;;9.47;;
29500;SDS011;16450;50.288;10.966;2024-01-10T09:28:52;17.53;;;9.10;;
29500;SDS011;16450;50.288;10.966;2024-01-10T09:31:55;19.57;;;10.50;;
29500;SDS011;16450;50.288;10.966;2024-01-10T09:34:58;20.77;;;9.90;;
29500;SDS011;16450;50.288;10.966;2024-01-10T09:38:00;20.03;;;9.80;;
29500;SDS011;16450;50.288;10.966;2024-01-10T09:41:02;19.50;;;10.00;;
29500;SDS011;16450;50.288;10.966;2024-01-10T09:44:05;21.80;;;10.10;;
29500;SDS011;16450;50.288;10.966;2024-01-10T09:47:07;24.13;;;10.97;;
29500;SDS011;16450;50.288;10.966;2024-01-10T09:50:09;19.77;;;10.07;;
29500;SDS011;16450;50.288;10.966;2024-01-10T09:53:14;20.27;;;10.10;;
29500;SDS011;16450;50.288;10.966;2024-01-10T09:56:24;20.40;;;10.63;;
29500;SDS011;16450;50.288;10.966;2024-01-10T09:59:26;23.67;;;10.23;;
29500;SDS011;16450;50.288;10.966;2024-01-10T10:02:28;20.07;;;9.90;;
29500;SDS011;16450;50.288;10.966;2024-01-10T10:05:31;20.10;;;9.80;;
29500;SDS011;16450;50.288;10.966;2024-01-10T10:08:36;19.37;;;10.30;;
29500;SDS011;16450;50.288;10.966;2024-01-10T10:11:40;20.40;;;10.73;;
29500;SDS011;16450;50.288;10.966;2024-01-10T10:14:42;18.63;;;9.63;;
29500;SDS011;16450;50.288;10.966;2024-01-10T10:17:44;20.47;;;9.90;;
29500;SDS011;16450;50.288;10.966;2024-01-10T10:20:47;18.33;;;9.53;;
29500;SDS011;16450;50.288;10.966;2024-01-10T10:23:59;19.80;;;10.80;;
29500;SDS011;16450;50.288;10.966;2024-01-10T10:27:07;19.77;;;9.83;;
29500;SDS011;16450;50.288;10.966;2024-01-10T10:30:14;18.60;;;10.37;;
29500;SDS011;16450;50.288;10.966;2024-01-10T10:33:16;19.57;;;9.93;;
29500;SDS011;16450;50.288;10.966;2024-01-10T10:36:19;19.97;;;10.07;;
29500;SDS011;16450;50.288;10.966;2024-01-10T10:39:22;21.93;;;11.53;;
29500;SDS011;16450;50.288;10.966;2024-01-10T10:42:23;18.23;;;9.83;;
29500;SDS011;16450;50.288;10.966;2024-01-10T10:45:30;19.43;;;9.93;;
29500;SDS011;16450;50.288;10.966;2024-01-10T10:48:34;16.47;;;9.10;;
29500;SDS011;16450;50.288;10.966;2024-01-10T10:51:37;19.37;;;9.87;;
29500;SDS011;16450;50.288;10.966;2024-01-10T10:54:39;17.37;;;9.13;;
29500;SDS011;16450;50.288;10.966;2024-01-10T10:57:45;17.77;;;9.70;;
29500;SDS011;16450;50.288;10.966;2024-01-10T11:01:05;20.93;;;11.03;;
29500;SDS011;16450;50.288;10.966;2024-01-10T11:04:08;20.70;;;10.33;;
29500;SDS011;16450;50.288;10.966;2024-01-10T11:07:10;18.40;;;9.53;;
29500;SDS011;16450;50.288;10.966;2024-01-10T11:10:17;17.30;;;9.20;;
29500;SDS011;16450;50.288;10.966;2024-01-10T11:17:29;16.50;;;8.30;;
29500;SDS011;16450;50.288;10.966;2024-01-10T11:24:21;17.33;;;8.70;;
29500;SDS011;16450;50.288;10.966;2024-01-10T11:27:25;18.60;;;9.10;;
29500;SDS011;16450;50.288;10.966;2024-01-10T11:30:34;19.33;;;9.00;;
29500;SDS011;16450;50.288;10.966;2024-01-10T11:33:50;19.37;;;10.10;;
29500;SDS011;16450;50.288;10.966;2024-01-10T11:37:09;18.37;;;9.77;;
29500;SDS011;16450;50.288;10.966;2024-01-10T11:40:15;17.87;;;8.70;;
29500;SDS011;16450;50.288;10.966;2024-01-10T11:43:25;17.13;;;8.83;;
29500;SDS011;16450;50.288;10.966;2024-01-10T11:46:27;16.80;;;9.10;;
29500;SDS011;16450;50.288;10.966;2024-01-10T11:49:29;17.50;;;9.03;;
29500;SDS011;16450;50.288;10.966;2024-01-10T11:52:32;19.40;;;9.70;;
29500;SDS011;16450;50.288;10.966;2024-01-10T11:55:49;19.87;;;9.50;;
29500;SDS011;16450;50.288;10.966;2024-01-10T11:59:03;19.10;;;8.80;;
29500;SDS011;16450;50.288;10.966;2024-01-10T12:02:12;16.13;;;8.97;;
29500;SDS011;16450;50.288;10.966;2024-01-10T12:05:19;19.00;;;9.27;;
29500;SDS011;16450;50.288;10.966;2024-01-10T12:08:21;17.70;;;9.53;;
29500;SDS011;16450;50.288;10.966;2024-01-10T12:11:23;21.43;;;9.80;;
29500;SDS011;16450;50.288;10.966;2024-01-10T12:14:25;18.07;;;9.33;;
29500;SDS011;16450;50.288;10.966;2024-01-10T12:17:27;16.97;;;9.10;;
29500;SDS011;16450;50.288;10.966;2024-01-10T12:20:30;17.63;;;9.03;;
29500;SDS011;16450;50.288;10.966;2024-01-10T12:23:33;19.33;;;8.73;;
29500;SDS011;16450;50.288;10.966;2024-01-10T12:26:42;16.97;;;8.93;;
29500;SDS011;16450;50.288;10.966;2024-01-10T12:29:51;17.97;;;9.07;;
29500;SDS011;16450;50.288;10.966;2024-01-10T12:32:54;18.43;;;9.13;;
29500;SDS011;16450;50.288;10.966;2024-01-10T12:36:09;17.17;;;8.83;;
29500;SDS011;16450;50.288;10.966;2024-01-10T12:39:12;17.20;;;8.83;;
29500;SDS011;16450;50.288;10.966;2024-01-10T12:42:15;18.00;;;8.87;;
29500;SDS011;16450;50.288;10.966;2024-01-10T12:45:23;17.83;;;9.10;;
29500;SDS011;16450;50.288;10.966;2024-01-10T12:48:25;16.57;;;8.20;;
29500;SDS011;16450;50.288;10.966;2024-01-10T12:51:31;16.83;;;9.03;;
29500;SDS011;16450;50.288;10.966;2024-01-10T12:54:34;21.60;;;10.80;;
29500;SDS011;16450;50.288;10.966;2024-01-10T12:57:36;18.20;;;8.90;;
29500;SDS011;16450;50.288;10.966;2024-01-10T13:00:38;18.23;;;8.77;;
29500;SDS011;16450;50.288;10.966;2024-01-10T13:03:41;17.33;;;9.80;;
29500;SDS011;16450;50.288;10.966;2024-01-10T13:06:43;17.17;;;9.20;;
29500;SDS011;16450;50.288;10.966;2024-01-10T13:09:45;16.77;;;9.00;;
29500;SDS011;16450;50.288;10.966;2024-01-10T13:12:47;17.30;;;9.40;;
29500;SDS011;16450;50.288;10.966;2024-01-10T13:15:49;16.97;;;9.03;;
29500;SDS011;16450;50.288;10.966;2024-01-10T13:18:51;19.80;;;9.13;;
29500;SDS011;16450;50.288;10.966;2024-01-10T13:21:55;19.10;;;9.20;;
29500;SDS011;16450;50.288;10.966;2024-01-10T13:24:57;17.30;;;8.93;;
29500;SDS011;16450;50.288;10.966;2024-01-10T13:27:59;25.63;;;9.80;;
29500;SDS011;16450;50.288;10.966;2024-01-10T13:31:02;17.13;;;8.53;;
29500;SDS011;16450;50.288;10.966;2024-01-10T13:34:04;18.33;;;9.43;;
29500;SDS011;16450;50.288;10.966;2024-01-10T13:37:06;18.60;;;8.97;;
29500;SDS011;16450;50.288;10.966;2024-01-10T13:40:12;19.87;;;10.03;;
29500;SDS011;16450;50.288;10.966;2024-01-10T13:43:14;18.97;;;8.90;;
29500;SDS011;16450;50.288;10.966;2024-01-10T13:46:16;16.33;;;8.60;;
29500;SDS011;16450;50.288;10.966;2024-01-10T13:49:18;16.70;;;8.80;;
29500;SDS011;16450;50.288;10.966;2024-01-10T13:52:21;20.67;;;10.00;;
29500;SDS011;16450;50.288;10.966;2024-01-10T13:55:23;19.53;;;10.27;;
29500;SDS011;16450;50.288;10.966;2024-01-10T13:58:25;18.97;;;9.37;;
29500;SDS011;16450;50.288;10.966;2024-01-10T14:01:27;21.13;;;9.83;;
29500;SDS011;16450;50.288;10.966;2024-01-10T14:04:29;19.00;;;9.37;;
29500;SDS011;16450;50.288;10.966;2024-01-10T14:07:32;19.00;;;9.03;;
29500;SDS011;16450;50.288;10.966;2024-01-10T14:10:34;16.33;;;8.70;;
29500;SDS011;16450;50.288;10.966;2024-01-10T14:13:36;20.53;;;9.83;;
29500;SDS011;16450;50.288;10.966;2024-01-10T14:16:38;20.83;;;9.17;;
29500;SDS011;16450;50.288;10.966;2024-01-10T14:19:40;16.60;;;9.00;;
29500;SDS011;16450;50.288;10.966;2024-01-10T14:22:41;20.60;;;9.10;;
29500;SDS011;16450;50.288;10.966;2024-01-10T14:25:43;20.23;;;8.67;;
29500;SDS011;16450;50.288;10.966;2024-01-10T14:28:45;18.03;;;9.50;;
29500;SDS011;16450;50.288;10.966;2024-01-10T14:31:47;17.00;;;8.73;;
29500;SDS011;16450;50.288;10.966;2024-01-10T14:35:10;18.17;;;9.33;;
29500;SDS011;16450;50.288;10.966;2024-01-10T14:38:12;19.87;;;9.23;;
29500;SDS011;16450;50.288;10.966;2024-01-10T14:41:14;17.80;;;9.00;;
29500;SDS011;16450;50.288;10.966;2024-01-10T14:44:16;21.17;;;9.93;;
29500;SDS011;16450;50.288;10.966;2024-01-10T14:47:18;17.73;;;9.33;;
29500;SDS011;16450;50.288;10.966;2024-01-10T14:50:21;19.33;;;9.10;;
29500;SDS011;16450;50.288;10.966;2024-01-10T14:53:26;20.00;;;9.33;;
29500;SDS011;16450;50.288;10.966;2024-01-10T14:56:28;17.13;;;9.27;;
29500;SDS011;16450;50.288;10.966;2024-01-10T14:59:30;15.10;;;8.70;;
29500;SDS011;16450;50.288;10.966;2024-01-10T15:02:45;17.07;;;8.90;;
29500;SDS011;16450;50.288;10.966;2024-01-10T15:05:47;17.40;;;9.23;;
29500;SDS011;16450;50.288;10.966;2024-01-10T15:08:49;17.97;;;8.87;;
29500;SDS011;16450;50.288;10.966;2024-01-10T15:11:51;20.60;;;9.60;;
29500;SDS011;16450;50.288;10.966;2024-01-10T15:14:54;16.73;;;9.23;;
29500;SDS011;16450;50.288;10.966;2024-01-10T15:18:00;20.07;;;8.97;;
29500;SDS011;16450;50.288;10.966;2024-01-10T15:21:02;19.50;;;9.37;;
29500;SDS011;16450;50.288;10.966;2024-01-10T15:24:06;17.17;;;9.30;;
29500;SDS011;16450;50.288;10.966;2024-01-10T15:27:08;18.07;;;9.23;;
29500;SDS011;16450;50.288;10.966;2024-01-10T15:30:12;20.10;;;9.53;;
29500;SDS011;16450;50.288;10.966;2024-01-10T15:33:17;28.80;;;14.47;;
29500;SDS011;16450;50.288;10.966;2024-01-10T15:36:20;23.80;;;12.73;;
29500;SDS011;16450;50.288;10.966;2024-01-10T15:39:21;21.70;;;10.70;;
29500;SDS011;16450;50.288;10.966;2024-01-10T15:42:26;18.13;;;9.83;;
29500;SDS011;16450;50.288;10.966;2024-01-10T15:45:29;19.27;;;10.00;;
29500;SDS011;16450;50.288;10.966;2024-01-10T15:48:33;21.93;;;11.20;;
29500;SDS011;16450;50.288;10.966;2024-01-10T15:51:35;20.30;;;9.63;;
29500;SDS011;16450;50.288;10.966;2024-01-10T15:54:37;20.30;;;10.40;;
29500;SDS011;16450;50.288;10.966;2024-01-10T15:57:39;21.70;;;10.53;;
29500;SDS011;16450;50.288;10.966;2024-01-10T16:00:41;25.03;;;11.07;;
29500;SDS011;16450;50.288;10.966;2024-01-10T16:03:43;22.80;;;11.83;;
29500;SDS011;16450;50.288;10.966;2024-01-10T16:06:45;27.50;;;15.03;;
29500;SDS011;16450;50.288;10.966;2024-01-10T16:09:47;40.00;;;21.47;;
29500;SDS011;16450;50.288;10.966;2024-01-10T16:12:49;25.90;;;13.23;;
29500;SDS011;16450;50.288;10.966;2024-01-10T16:15:54;22.30;;;11.87;;
29500;SDS011;16450;50.288;10.966;2024-01-10T16:18:57;23.87;;;11.60;;
29500;SDS011;16450;50.288;10.966;2024-01-10T16:21:59;21.97;;;11.87;;
29500;SDS011;16450;50.288;10.966;2024-01-10T16:25:01;22.03;;;11.43;;
29500;SDS011;16450;50.288;10.966;2024-01-10T16:28:03;26.87;;;12.10;;
29500;SDS011;16450;50.288;10.966;2024-01-10T16:31:06;23.43;;;12.37;;
29500;SDS011;16450;50.288;10.966;2024-01-10T16:34:07;24.47;;;12.37;;
29500;SDS011;16450;50.288;10.966;2024-01-10T16:37:09;26.37;;;13.47;;
29500;SDS011;16450;50.288;10.966;2024-01-10T16:40:13;24.87;;;12.63;;
29500;SDS011;16450;50.288;10.966;2024-01-10T16:43:18;26.70;;;14.30;;
29500;SDS011;16450;50.288;10.966;2024-01-10T16:46:20;28.97;;;15.33;;
29500;SDS011;16450;50.288;10.966;2024-01-10T16:49:22;28.57;;;16.70;;
29500;SDS011;16450;50.288;10.966;2024-01-10T16:52:24;28.53;;;15.73;;
29500;SDS011;16450;50.288;10.966;2024-01-10T16:55:26;29.93;;;16.10;;
29500;SDS011;16450;50.288;10.966;2024-01-10T16:58:28;29.07;;;15.87;;
29500;SDS011;16450;50.288;10.966;2024-01-10T17:01:30;32.27;;;16.13;;
29500;SDS011;16450;50.288;10.966;2024-01-10T17:04:32;45.37;;;21.77;;
29500;SDS011;16450;50.288;10.966;2024-01-10T17:07:34;48.03;;;22.97;;
29500;SDS011;16450;50.288;10.966;2024-01-10T17:10:37;41.27;;;22.83;;
29500;SDS011;16450;50.288;10.966;2024-01-10T17:13:39;47.83;;;23.87;;
29500;SDS011;16450;50.288;10.966;2024-01-10T17:16:40;40.80;;;22.03;;
29500;SDS011;16450;50.288;10.966;2024-01-10T17:19:42;41.57;;;22.17;;
29500;SDS011;16450;50.288;10.966;2024-01-10T17:22:44;56.10;;;29.53;;
29500;SDS011;16450;50.288;10.966;2024-01-10T17:25:46;55.03;;;28.20;;
29500;SDS011;16450;50.288;10.966;2024-01-10T17:28:48;45.13;;;24.20;;
29500;SDS011;16450;50.288;10.966;2024-01-10T17:31:50;39.47;;;21.83;;
29500;SDS011;16450;50.288;10.966;2024-01-10T17:34:52;44.27;;;21.67;;
29500;SDS011;16450;50.288;10.966;2024-01-10T17:37:54;38.37;;;21.33;;
29500;SDS011;16450;50.288;10.966;2024-01-10T17:40:56;36.47;;;19.10;;
29500;SDS011;16450;50.288;10.966;2024-01-10T17:43:58;39.57;;;19.30;;
29500;SDS011;16450;50.288;10.966;2024-01-10T17:47:00;32.17;;;17.77;;
29500;SDS011;16450;50.288;10.966;2024-01-10T17:50:02;34.53;;;19.50;;